createdAt,value
2018-12-23T00:02:15.554Z,106.96
2018-12-23T00:05:19.101Z,106.97
2018-12-23T00:08:22.574Z,107.07
2018-12-23T00:11:26.080Z,107.29
2018-12-23T00:14:29.599Z,107.43
2018-12-23T00:17:33.059Z,107.46
2018-12-23T00:20:36.684Z,107.61
2018-12-23T00:23:40.236Z,107.80
2018-12-23T00:26:43.774Z,107.96
2018-12-23T00:29:47.312Z,108.22
2018-12-23T00:32:50.875Z,108.48
2018-12-23T00:35:54.393Z,108.47
2018-12-23T00:38:57.981Z,108.49
2018-12-23T00:42:01.495Z,108.38
2018-12-23T00:45:05.690Z,108.33
2018-12-23T00:48:09.389Z,108.25
2018-12-23T00:51:12.861Z,108.37
2018-12-23T00:54:16.393Z,108.51
2018-12-23T00:57:19.924Z,108.54
2018-12-23T01:00:23.418Z,108.57
2018-12-23T01:03:26.981Z,108.59
2018-12-23T01:06:30.536Z,108.51
2018-12-23T01:09:36.201Z,108.24
2018-12-23T01:12:39.528Z,108.19
2018-12-23T01:15:43.030Z,108.34
2018-12-23T01:18:46.665Z,108.70
2018-12-23T01:21:50.146Z,108.92
2018-12-23T01:24:53.670Z,108.76
2018-12-23T01:27:57.583Z,108.80
2018-12-23T01:31:01.075Z,108.94
2018-12-23T01:34:05.403Z,108.98
2018-12-23T01:37:09.015Z,109.19
2018-12-23T01:40:12.496Z,109.26
2018-12-23T01:43:16.135Z,109.37
2018-12-23T01:46:19.720Z,109.50
2018-12-23T01:49:23.428Z,109.58
2018-12-23T01:52:26.959Z,109.46
2018-12-23T01:55:30.435Z,109.61
2018-12-23T01:58:34.043Z,109.81
2018-12-23T02:01:44.909Z,109.91
2018-12-23T02:04:48.426Z,110.17
2018-12-23T02:07:52.004Z,110.17
2018-12-23T02:10:55.679Z,110.21
2018-12-23T02:13:59.284Z,110.24
2018-12-23T02:17:02.779Z,110.37
2018-12-23T02:20:06.943Z,110.49
2018-12-23T02:23:10.452Z,110.44
2018-12-23T02:26:13.935Z,110.50
2018-12-23T02:29:17.419Z,110.55
2018-12-23T02:32:20.872Z,110.70
2018-12-23T02:35:24.464Z,110.68
2018-12-23T02:38:27.963Z,110.68
2018-12-23T02:41:32.121Z,110.74
2018-12-23T02:44:35.678Z,110.76
2018-12-23T02:47:39.252Z,110.87
2018-12-23T02:50:42.722Z,110.86
2018-12-23T02:53:46.467Z,110.83
2018-12-23T02:56:50.039Z,110.82
2018-12-23T02:59:53.585Z,110.73
2018-12-23T03:02:57.487Z,110.78
2018-12-23T03:06:05.769Z,110.94
2018-12-23T03:09:07.290Z,110.92
2018-12-23T03:12:10.808Z,110.98
2018-12-23T03:15:14.393Z,110.93
2018-12-23T03:18:17.984Z,111.01
2018-12-23T03:21:21.470Z,110.97
2018-12-23T03:24:25.008Z,110.84
2018-12-23T03:27:28.652Z,110.77
2018-12-23T03:30:32.118Z,110.75
2018-12-23T03:33:35.708Z,110.75
2018-12-23T03:36:39.353Z,110.72
2018-12-23T03:39:42.804Z,110.76
2018-12-23T03:42:46.262Z,110.70
2018-12-23T03:45:49.758Z,110.72
2018-12-23T03:48:53.239Z,110.70
2018-12-23T03:51:57.528Z,110.71
2018-12-23T03:55:01.065Z,110.63
2018-12-23T03:58:04.550Z,110.61
2018-12-23T04:01:08.669Z,110.54
2018-12-23T04:04:12.116Z,110.50
2018-12-23T04:07:15.670Z,110.48
2018-12-23T04:10:19.274Z,110.53
2018-12-23T04:13:22.855Z,110.56
2018-12-23T04:16:26.357Z,110.56
2018-12-23T04:19:29.853Z,110.47
2018-12-23T04:22:33.357Z,110.42
2018-12-23T04:25:36.797Z,110.31
2018-12-23T04:28:40.441Z,110.09
2018-12-23T04:31:43.966Z,109.98
2018-12-23T04:34:47.482Z,109.99
2018-12-23T04:37:51.058Z,110.07
2018-12-23T04:40:54.569Z,109.93
2018-12-23T04:43:58.062Z,109.80
2018-12-23T04:47:01.587Z,109.58
2018-12-23T04:50:05.873Z,109.78
2018-12-23T04:53:09.321Z,110.06
2018-12-23T04:56:12.994Z,110.10
2018-12-23T04:59:16.533Z,110.25
2018-12-23T05:02:20.001Z,110.37
2018-12-23T05:05:23.599Z,110.50
2018-12-23T05:08:27.138Z,110.55
2018-12-23T05:11:30.666Z,110.60
2018-12-23T05:14:34.216Z,110.66
2018-12-23T05:17:37.747Z,110.56
2018-12-23T05:20:41.409Z,110.44
2018-12-23T05:23:44.912Z,110.44
2018-12-23T05:26:48.428Z,110.44
2018-12-23T05:29:58.472Z,110.51
2018-12-23T05:33:01.897Z,110.16
2018-12-23T05:36:05.333Z,109.82
2018-12-23T05:39:08.973Z,109.54
2018-12-23T05:42:12.456Z,109.41
2018-12-23T05:45:16.004Z,109.31
2018-12-23T05:48:19.479Z,109.31
2018-12-23T05:51:22.957Z,109.36
2018-12-23T05:54:26.508Z,109.32
2018-12-23T05:57:30.091Z,108.92
2018-12-23T06:00:33.626Z,108.67
2018-12-23T06:03:37.177Z,108.57
2018-12-23T06:06:40.621Z,108.54
2018-12-23T06:09:44.072Z,108.43
2018-12-23T06:12:47.561Z,108.44
2018-12-23T06:15:51.011Z,108.77
2018-12-23T06:18:54.648Z,108.76
2018-12-23T06:21:58.143Z,108.96
2018-12-23T06:25:01.744Z,109.10
2018-12-23T06:28:05.351Z,109.05
2018-12-23T06:31:09.507Z,109.02
2018-12-23T06:34:13.127Z,108.96
2018-12-23T06:37:16.683Z,108.77
2018-12-23T06:40:20.425Z,108.71
2018-12-23T06:43:23.932Z,108.65
2018-12-23T06:46:27.621Z,108.81
2018-12-23T06:49:31.144Z,108.88
2018-12-23T06:52:34.785Z,108.72
2018-12-23T06:55:50.210Z,108.48
2018-12-23T06:58:53.690Z,108.50
2018-12-23T07:01:57.731Z,108.28
2018-12-23T07:05:01.223Z,108.27
2018-12-23T07:08:04.867Z,108.15
2018-12-23T07:11:09.072Z,108.20
2018-12-23T07:14:12.502Z,107.91
2018-12-23T07:17:16.052Z,107.64
2018-12-23T07:20:19.676Z,107.42
2018-12-23T07:23:23.549Z,107.70
2018-12-23T07:26:27.277Z,108.04
2018-12-23T07:29:30.795Z,108.05
2018-12-23T07:32:34.292Z,107.97
2018-12-23T07:35:37.715Z,107.75
2018-12-23T07:38:41.192Z,107.73
2018-12-23T07:41:44.730Z,107.69
2018-12-23T07:44:48.232Z,107.40
2018-12-23T07:47:51.810Z,107.45
2018-12-23T07:50:55.360Z,107.10
2018-12-23T07:53:58.852Z,107.12
2018-12-23T07:57:02.432Z,106.98
2018-12-23T08:00:06.007Z,107.00
2018-12-23T08:03:09.597Z,106.96
2018-12-23T08:06:13.156Z,107.03
2018-12-23T08:09:17.675Z,106.93
2018-12-23T08:12:21.230Z,106.72
2018-12-23T08:15:24.760Z,106.51
2018-12-23T08:18:28.355Z,106.36
2018-12-23T08:21:32.142Z,106.40
2018-12-23T08:24:35.831Z,106.46
2018-12-23T08:27:39.384Z,106.21
2018-12-23T08:30:42.946Z,106.17
2018-12-23T08:33:46.525Z,106.28
2018-12-23T08:36:50.137Z,106.26
2018-12-23T08:39:53.750Z,106.33
2018-12-23T08:42:57.886Z,106.33
2018-12-23T08:46:01.500Z,105.80
2018-12-23T08:49:04.969Z,105.68
2018-12-23T08:52:09.189Z,105.79
2018-12-23T08:55:12.696Z,105.29
2018-12-23T08:58:16.104Z,105.35
2018-12-23T09:01:19.565Z,105.11
2018-12-23T09:04:23.050Z,104.78
2018-12-23T09:07:26.530Z,104.53
2018-12-23T09:10:30.010Z,104.55
2018-12-23T09:13:33.571Z,104.26
2018-12-23T09:16:37.037Z,104.34
2018-12-23T09:19:40.511Z,103.84
2018-12-23T09:22:44.080Z,103.26
2018-12-23T09:25:47.654Z,103.59
2018-12-23T09:28:51.095Z,103.50
2018-12-23T09:31:54.803Z,103.55
2018-12-23T09:34:58.376Z,103.17
2018-12-23T09:38:01.958Z,103.00
2018-12-23T09:41:05.545Z,102.68
2018-12-23T09:44:09.255Z,102.46
2018-12-23T09:47:12.732Z,102.47
2018-12-23T09:50:16.210Z,102.46
2018-12-23T09:53:19.834Z,102.43
2018-12-23T09:56:23.259Z,102.04
2018-12-23T09:59:26.930Z,102.31
2018-12-23T10:02:30.439Z,101.99
2018-12-23T10:05:33.959Z,102.56
2018-12-23T10:08:37.446Z,102.01
2018-12-23T10:11:40.984Z,101.52
2018-12-23T10:14:44.531Z,101.81
2018-12-23T10:17:48.014Z,102.20
2018-12-23T10:20:51.498Z,102.19
2018-12-23T10:23:55.139Z,101.91
2018-12-23T10:26:58.579Z,102.36
2018-12-23T10:30:02.081Z,102.04
2018-12-23T10:33:05.559Z,102.06
2018-12-23T10:36:09.602Z,101.46
2018-12-23T10:39:13.143Z,101.95
2018-12-23T10:42:16.765Z,102.30
2018-12-23T10:45:20.269Z,101.94
2018-12-23T10:48:23.816Z,101.97
2018-12-23T10:51:27.336Z,102.32
2018-12-23T10:54:30.927Z,102.25
2018-12-23T10:57:34.487Z,102.84
2018-12-23T11:00:38.039Z,102.37
2018-12-23T11:03:41.691Z,102.23
2018-12-23T11:06:45.250Z,102.49
2018-12-23T11:09:48.745Z,101.72
2018-12-23T11:12:52.351Z,102.75
2018-12-23T11:15:55.904Z,103.14
2018-12-23T11:18:59.471Z,103.30
2018-12-23T11:22:03.176Z,103.43
2018-12-23T11:25:06.914Z,103.43
2018-12-23T11:28:10.570Z,103.46
2018-12-23T11:31:14.115Z,103.07
2018-12-23T11:34:17.605Z,102.88
2018-12-23T11:37:21.164Z,103.17
2018-12-23T11:40:25.105Z,103.27
2018-12-23T11:43:28.615Z,103.31
2018-12-23T11:46:32.114Z,102.65
2018-12-23T11:49:35.818Z,103.27
2018-12-23T11:52:39.854Z,102.73
2018-12-23T11:55:43.379Z,102.91
2018-12-23T11:58:46.900Z,103.17
2018-12-23T12:01:50.385Z,103.17
2018-12-23T12:04:53.868Z,103.18
2018-12-23T12:07:57.902Z,103.82
2018-12-23T12:11:01.435Z,103.99
2018-12-23T12:14:05.045Z,104.23
2018-12-23T12:17:08.746Z,103.80
2018-12-23T12:20:12.310Z,103.93
2018-12-23T12:23:15.823Z,104.10
2018-12-23T12:26:19.561Z,104.24
2018-12-23T12:29:23.120Z,103.62
2018-12-23T12:32:26.761Z,103.94
2018-12-23T12:35:30.220Z,103.54
2018-12-23T12:38:33.960Z,103.65
2018-12-23T12:41:37.431Z,103.97
2018-12-23T12:44:40.939Z,103.57
2018-12-23T12:47:50.450Z,104.34
2018-12-23T12:50:54.467Z,104.20
2018-12-23T12:55:06.355Z,104.03
2018-12-23T12:58:10.165Z,104.52
2018-12-23T13:01:15.982Z,104.58
2018-12-23T13:04:19.440Z,104.74
2018-12-23T13:07:24.344Z,105.01
2018-12-23T13:10:27.880Z,104.82
2018-12-23T13:13:31.525Z,105.43
2018-12-23T13:16:35.117Z,105.49
2018-12-23T13:20:10.655Z,105.82
2018-12-23T13:23:17.231Z,106.03
2018-12-23T13:29:35.023Z,106.39
2018-12-23T13:32:38.538Z,106.22
2018-12-23T13:35:42.051Z,106.04
2018-12-23T13:38:45.502Z,106.38
2018-12-23T13:42:01.110Z,106.76
2018-12-23T13:45:29.688Z,106.74
2018-12-23T13:48:45.024Z,106.55
2018-12-23T13:53:01.458Z,106.64
2018-12-23T13:56:17.891Z,106.08
2018-12-23T14:02:36.526Z,106.35
2018-12-23T14:05:51.309Z,106.27
2018-12-23T14:09:17.253Z,106.67
2018-12-23T14:12:17.289Z,107.13
2018-12-23T14:15:20.795Z,107.35
2018-12-23T14:18:24.379Z,107.08
2018-12-23T14:21:29.184Z,107.09
2018-12-23T14:24:32.704Z,106.94
2018-12-23T14:27:36.285Z,106.97
2018-12-23T14:37:52.735Z,107.03
2018-12-23T14:40:56.470Z,107.14
2018-12-23T14:44:00.015Z,107.34
2018-12-23T14:47:03.654Z,107.77
2018-12-23T14:50:08.640Z,107.76
2018-12-23T14:53:12.280Z,107.74
2018-12-23T14:56:15.798Z,108.00
2018-12-23T14:59:19.336Z,108.17
2018-12-23T15:02:22.895Z,108.51
2018-12-23T15:05:26.423Z,108.69
2018-12-23T15:08:31.015Z,108.76
2018-12-23T15:11:34.820Z,108.75
2018-12-23T15:14:41.903Z,108.95
2018-12-23T15:17:45.434Z,109.05
2018-12-23T15:20:49.014Z,109.14
2018-12-23T15:23:52.520Z,109.19
2018-12-23T15:26:56.179Z,109.30
2018-12-23T15:29:59.631Z,109.35
2018-12-23T15:33:03.189Z,109.28
2018-12-23T15:36:06.899Z,109.46
2018-12-23T15:39:11.369Z,109.60
2018-12-23T15:42:14.850Z,109.68
2018-12-23T15:45:18.397Z,109.74
2018-12-23T15:48:21.923Z,109.85
2018-12-23T15:51:25.406Z,109.86
2018-12-23T15:54:31.151Z,109.87
2018-12-23T15:57:34.762Z,109.89
2018-12-23T16:00:42.324Z,109.93
2018-12-23T16:03:45.865Z,110.04
2018-12-23T16:06:49.465Z,110.02
2018-12-23T16:09:54.193Z,110.05
2018-12-23T16:13:00.153Z,110.09
2018-12-23T16:27:00.234Z,109.77
2018-12-23T16:30:04.860Z,109.66
2018-12-23T16:33:09.198Z,109.67
2018-12-23T16:36:13.581Z,109.71
2018-12-23T16:39:17.969Z,109.77
2018-12-23T16:42:22.253Z,109.82
2018-12-23T16:45:26.571Z,109.80
2018-12-23T16:48:30.870Z,109.90
2018-12-23T16:51:35.149Z,110.03
2018-12-23T16:54:39.455Z,110.08
2018-12-23T16:57:43.767Z,110.14
2018-12-23T17:00:48.097Z,110.18
2018-12-23T17:03:52.460Z,110.26
2018-12-23T17:06:57.038Z,110.27
2018-12-23T17:10:08.414Z,110.25
2018-12-23T17:13:11.118Z,110.28
2018-12-23T17:16:15.481Z,110.31
2018-12-23T17:19:19.829Z,110.30
2018-12-23T17:22:32.563Z,110.23
2018-12-23T17:25:36.949Z,110.24
2018-12-23T17:28:41.466Z,110.40
2018-12-23T17:31:46.238Z,110.44
2018-12-23T17:34:50.552Z,110.47
2018-12-23T17:37:54.841Z,110.56
2018-12-23T17:40:59.145Z,110.33
2018-12-23T17:44:03.452Z,110.28
2018-12-23T17:47:07.788Z,110.39
2018-12-23T17:50:12.292Z,110.42
2018-12-23T17:53:19.849Z,110.58
2018-12-23T17:56:24.195Z,110.59
2018-12-23T17:59:28.544Z,110.68
2018-12-23T18:02:32.959Z,110.76
2018-12-23T18:05:37.378Z,110.94
2018-12-23T18:08:41.757Z,110.96
2018-12-23T18:11:46.160Z,110.96
2018-12-23T18:14:50.522Z,110.93
2018-12-23T18:17:54.875Z,110.89
2018-12-23T18:20:59.319Z,110.94
2018-12-23T18:24:05.148Z,110.84
2018-12-23T18:27:10.023Z,110.73
2018-12-23T18:30:14.380Z,110.84
2018-12-23T18:33:21.821Z,110.89
2018-12-23T18:36:26.260Z,110.83
2018-12-23T18:39:30.773Z,110.89
2018-12-23T18:42:40.859Z,110.83
2018-12-23T18:45:45.456Z,110.80
2018-12-23T18:48:49.814Z,110.79
2018-12-23T18:52:04.880Z,110.89
2018-12-23T18:55:14.448Z,111.00
2018-12-23T18:58:18.895Z,110.92
2018-12-23T19:01:24.819Z,110.87
2018-12-23T19:04:29.227Z,110.81
2018-12-23T19:07:33.539Z,110.79
2018-12-23T19:11:36.720Z,110.77
2018-12-23T19:15:12.905Z,110.69
2018-12-23T19:18:28.818Z,110.84
2018-12-23T19:22:03.489Z,110.92
2018-12-23T19:25:39.734Z,110.86
2018-12-23T19:29:21.025Z,110.95
2018-12-23T19:33:02.032Z,111.06
2018-12-23T19:36:51.718Z,111.06
2018-12-23T19:40:26.431Z,111.07
2018-12-23T19:44:12.753Z,111.02
2018-12-23T19:47:52.673Z,111.05
2018-12-23T19:51:41.030Z,110.92
2018-12-23T19:55:32.420Z,110.86
2018-12-23T19:59:22.694Z,110.60
2018-12-23T20:03:13.025Z,110.41
2018-12-23T20:06:45.250Z,110.49
2018-12-23T20:10:28.059Z,110.54
2018-12-23T20:14:26.837Z,110.58
2018-12-23T20:18:43.604Z,110.34
2018-12-23T20:22:21.703Z,110.34
2018-12-23T20:26:11.997Z,110.20
2018-12-23T20:30:01.132Z,110.34
2018-12-23T20:33:41.272Z,110.36
2018-12-23T20:37:22.084Z,110.40
2018-12-23T20:41:13.593Z,110.44
2018-12-23T20:44:46.289Z,110.41
2018-12-23T20:48:19.403Z,110.37
2018-12-23T20:52:01.159Z,110.33
2018-12-23T20:55:44.689Z,110.21
2018-12-23T20:59:11.513Z,110.11
2018-12-23T21:02:52.472Z,110.17
2018-12-23T21:06:23.473Z,110.17
2018-12-23T21:10:04.358Z,110.18
2018-12-23T21:13:26.523Z,110.33
2018-12-23T21:16:55.994Z,110.40
2018-12-23T21:21:05.246Z,110.48
2018-12-23T21:25:00.994Z,110.43
2018-12-23T21:28:43.607Z,110.46
2018-12-23T21:32:06.202Z,110.57
2018-12-23T21:35:31.833Z,110.66
2018-12-23T21:39:07.483Z,110.73
2018-12-23T21:42:22.985Z,110.74
2018-12-23T21:45:53.763Z,110.72
2018-12-23T21:49:37.195Z,110.65
2018-12-23T21:53:16.912Z,110.66
2018-12-23T21:57:07.363Z,110.74
2018-12-23T22:00:51.576Z,110.76
2018-12-23T22:04:31.083Z,110.48
2018-12-23T22:08:27.743Z,110.29
2018-12-23T22:12:20.709Z,110.38
2018-12-23T22:15:25.037Z,110.51
2018-12-23T22:18:29.375Z,110.60
2018-12-23T22:21:33.757Z,110.61
2018-12-23T22:24:38.392Z,110.58
2018-12-23T22:27:42.718Z,110.64
2018-12-23T22:30:47.116Z,110.64
2018-12-23T22:33:51.383Z,110.57
2018-12-23T22:36:55.791Z,110.57
2018-12-23T22:40:00.277Z,110.54
2018-12-23T22:43:04.728Z,110.54
2018-12-23T22:46:09.197Z,110.68
2018-12-23T22:49:13.642Z,110.54
2018-12-23T22:52:19.551Z,110.49
2018-12-23T22:55:24.248Z,110.53
2018-12-23T22:58:28.577Z,110.56
2018-12-23T23:01:33.523Z,110.57
2018-12-23T23:04:37.892Z,110.60
2018-12-23T23:07:42.622Z,110.70
2018-12-23T23:10:46.887Z,110.66
2018-12-23T23:13:51.217Z,110.56
2018-12-23T23:16:55.462Z,110.51
2018-12-23T23:19:59.858Z,110.68
2018-12-23T23:23:04.116Z,110.64
2018-12-23T23:26:08.519Z,110.63
2018-12-23T23:29:12.819Z,110.59
2018-12-23T23:32:17.117Z,110.53
2018-12-23T23:35:21.433Z,110.60
2018-12-23T23:38:25.927Z,110.73
2018-12-23T23:41:31.758Z,110.82
2018-12-23T23:44:36.060Z,110.81
2018-12-23T23:47:40.333Z,110.91
2018-12-23T23:50:44.709Z,111.02
2018-12-23T23:53:49.059Z,110.96
2018-12-23T23:56:53.583Z,110.90
2018-12-23T23:59:59.054Z,110.90
